Time;durP1;ratioP1;P1;durP2;ratioP2;P2;SDS_P1;SDS_P2;PMS_P1;PMS_P2;Temp;Humidity;BMP_temperature;BMP_pressure;BME280_temperature;BME280_humidity;BME280_pressure;Samples;Min_cycle;Max_cycle;Signal;HPM_P1;HPM_P2
2022/10/04 08:01:56;;;;;;;13.20;7.72;;;;;;;11.56;91.65;101900.28;5228944;27;2594266;-75
2022/10/04 08:04:34;;;;;;;11.75;6.90;;;;;;;11.60;91.37;101907.78;5285726;28;20036;-75
2022/10/04 08:07:21;;;;;;;10.38;5.63;;;;;;;11.66;91.34;101898.38;5285698;28;20120;-75
2022/10/04 08:10:08;;;;;;;11.43;6.93;;;;;;;11.73;91.70;101896.19;5286789;28;20031;-74
2022/10/04 08:12:48;;;;;;;7.40;6.05;;;;;;;11.75;91.34;101899.50;5296279;28;20033;-76
2022/10/04 08:15:33;;;;;;;9.10;5.93;;;;;;;11.80;90.45;101895.09;5293060;28;20020;-69
2022/10/04 08:18:33;;;;;;;9.88;6.15;;;;;;;11.91;91.20;101882.91;5286273;28;20039;-71
2022/10/04 08:21:08;;;;;;;8.85;5.70;;;;;;;11.94;90.70;101891.56;5304712;28;20117;-69
2022/10/04 08:24:15;;;;;;;9.75;6.07;;;;;;;12.05;90.67;101886.84;5293503;28;20352;-76
2022/10/04 08:27:01;;;;;;;;;;;;;;;12.14;89.68;101888.00;5285624;28;20028;-76
2022/10/04 08:29:46;;;;;;;10.10;6.38;;;;;;;12.18;89.03;101891.88;5298864;28;19994;-76
2022/10/04 08:32:22;;;;;;;7.90;5.85;;;;;;;12.29;87.89;101895.50;5297894;28;20024;-75
2022/10/04 08:35:03;;;;;;;10.48;5.82;;;;;;;12.34;88.57;101897.47;5298905;28;20024;-74
2022/10/04 08:37:52;;;;;;;12.05;6.38;;;;;;;12.40;87.72;101891.66;5296609;28;20123;-74
2022/10/04 08:40:48;;;;;;;9.75;7.07;;;;;;;12.42;87.79;101899.69;5293786;28;20029;-79
2022/10/04 08:43:50;;;;;;;7.18;5.93;;;;;;;12.48;87.10;101895.81;5299123;28;20036;-76
2022/10/04 08:46:41;;;;;;;10.15;6.47;;;;;;;12.57;86.38;101893.31;5297607;28;20468;-76
2022/10/04 08:49:56;;;;;;;10.65;6.57;;;;;;;12.68;87.17;101894.16;5298902;28;20036;-76
2022/10/04 08:52:39;;;;;;;11.00;6.78;;;;;;;12.71;85.73;101893.63;5277877;28;20037;-75
2022/10/04 08:55:42;;;;;;;10.88;7.25;;;;;;;12.80;85.40;101892.75;5277694;28;20016;-75
2022/10/04 08:58:32;;;;;;;9.80;6.20;;;;;;;12.82;84.70;101889.69;5278469;28;20044;-74
2022/10/04 09:01:26;;;;;;;12.55;6.95;;;;;;;12.92;85.31;101895.25;5289469;28;20060;-74
2022/10/04 09:04:28;;;;;;;10.50;7.13;;;;;;;12.99;84.51;101901.38;5297085;28;20364;-74
2022/10/04 09:07:42;;;;;;;12.35;6.65;;;;;;;13.16;86.34;101889.09;5281867;28;20033;-72
2022/10/04 09:10:38;;;;;;;9.85;7.40;;;;;;;13.22;84.75;101894.38;5305329;28;20033;-72
2022/10/04 09:13:30;;;;;;;9.60;7.65;;;;;;;13.30;84.23;101904.16;5263118;28;20048;-72
2022/10/04 09:16:20;;;;;;;9.52;7.03;;;;;;;13.37;84.55;101912.19;5270243;28;20032;-72
2022/10/04 09:18:51;;;;;;;10.95;6.95;;;;;;;13.55;85.23;101913.53;5286148;28;20479;-72
2022/10/04 09:21:44;;;;;;;10.27;8.00;;;;;;;13.47;82.40;101910.22;5282037;28;20047;-72
2022/10/04 09:24:35;;;;;;;10.60;7.03;;;;;;;13.54;81.86;101895.97;5282590;28;20475;-71
2022/10/04 09:27:14;;;;;;;9.13;6.97;;;;;;;13.66;83.56;101892.88;5282508;28;20066;-71
2022/10/04 09:30:10;;;;;;;12.95;6.53;;;;;;;13.84;83.52;101895.03;5281481;28;20028;-71
2022/10/04 09:33:09;;;;;;;9.80;6.97;;;;;;;13.76;81.70;101897.59;5262982;28;20188;-73
2022/10/04 09:35:46;;;;;;;10.55;6.68;;;;;;;13.82;81.79;101888.88;5275103;28;20394;-72
2022/10/04 09:39:15;;;;;;;12.80;7.68;;;;;;;14.00;82.78;101881.00;5261990;28;20042;-72
2022/10/04 09:41:55;;;;;;;8.48;6.15;;;;;;;14.00;79.84;101883.78;5242557;28;20044;-72
2022/10/04 09:44:54;;;;;;;8.23;5.55;;;;;;;14.10;79.76;101875.34;5281978;28;20035;-70
2022/10/04 09:47:55;;;;;;;12.00;5.40;;;;;;;14.23;79.72;101873.88;5273800;28;20380;-72
2022/10/04 09:50:44;;;;;;;10.38;5.45;;;;;;;14.41;80.50;101875.16;5265686;28;20113;-72
2022/10/04 09:53:41;;;;;;;11.45;6.60;;;;;;;14.35;79.25;101874.34;5281986;28;20078;-73
2022/10/04 09:56:17;;;;;;;11.65;6.10;;;;;;;14.36;78.78;101879.63;5283450;28;20033;-71
2022/10/04 09:59:03;;;;;;;11.18;6.03;;;;;;;14.43;79.86;101881.28;5276737;28;20052;-71
2022/10/04 10:01:53;;;;;;;9.13;6.07;;;;;;;14.47;78.77;101873.97;5280823;28;20079;-70
2022/10/04 10:04:47;;;;;;;7.32;5.53;;;;;;;14.61;79.17;101879.78;5302821;28;20035;-70
2022/10/04 10:07:38;;;;;;;7.82;6.30;;;;;;;14.45;77.82;101876.25;5283269;28;20071;-71
2022/10/04 10:13:58;;;;;;;5.97;5.32;;;;;;;14.68;79.13;101875.50;5268843;28;20045;-71
2022/10/04 10:16:41;;;;;;;11.05;6.32;;;;;;;14.69;78.01;101871.59;5267092;28;20064;-74
2022/10/04 10:19:36;;;;;;;8.65;5.47;;;;;;;14.82;78.20;101870.06;5261990;28;20146;-75
2022/10/04 10:22:46;;;;;;;8.88;6.65;;;;;;;14.79;77.95;101868.69;5263126;28;20052;-72
2022/10/04 10:25:30;;;;;;;8.88;5.95;;;;;;;14.86;77.96;101865.59;5262968;28;20029;-72
2022/10/04 10:28:01;;;;;;;17.48;15.85;;;;;;;14.95;76.84;101857.38;5264103;28;20029;-71
2022/10/04 10:31:09;;;;;;;9.63;6.05;;;;;;;14.96;77.25;101854.31;5261958;28;20087;-73
2022/10/04 10:34:12;;;;;;;9.50;5.95;;;;;;;15.03;77.45;101845.56;5261200;28;20036;-73
2022/10/04 10:37:05;;;;;;;9.65;4.97;;;;;;;15.01;75.85;101850.63;5262005;28;20037;-75
2022/10/04 10:39:57;;;;;;;6.60;5.20;;;;;;;15.12;75.00;101852.19;5263240;28;20033;-72
2022/10/04 10:42:41;;;;;;;10.00;6.18;;;;;;;15.13;75.24;101853.00;5273849;28;20893;-71
2022/10/04 10:45:44;;;;;;;9.50;5.75;;;;;;;15.19;75.28;101851.84;5282676;28;20032;-71
2022/10/04 10:48:34;;;;;;;7.13;5.13;;;;;;;15.27;74.87;101853.16;5267937;28;20427;-70
2022/10/04 10:51:17;;;;;;;8.55;4.82;;;;;;;15.33;74.16;101860.34;5281622;28;20032;-70
2022/10/04 10:54:15;;;;;;;6.85;4.95;;;;;;;15.31;74.04;101868.19;5277663;28;20023;-69
2022/10/04 10:57:11;;;;;;;6.63;5.75;;;;;;;15.35;74.42;101870.09;5269840;28;20509;-70
2022/10/04 11:00:01;;;;;;;6.00;5.30;;;;;;;15.28;74.52;101871.56;5275873;28;20063;-70
2022/10/04 11:03:04;;;;;;;7.43;4.75;;;;;;;15.24;74.23;101860.16;5281907;28;20043;-71
2022/10/04 11:06:00;;;;;;;5.95;4.55;;;;;;;15.32;73.88;101855.88;5269564;28;20033;-71
2022/10/04 11:08:50;;;;;;;8.55;6.13;;;;;;;15.41;74.80;101854.91;5302363;28;20097;-71
2022/10/04 11:11:29;;;;;;;8.23;5.07;;;;;;;15.50;74.89;101846.72;5297120;28;20134;-71
2022/10/04 11:14:11;;;;;;;7.30;5.00;;;;;;;15.64;74.45;101830.03;5260701;28;20538;-72
2022/10/04 11:17:09;;;;;;;10.10;5.30;;;;;;;15.69;73.46;101827.19;5276683;28;20032;-72
2022/10/04 11:20:12;;;;;;;8.05;5.15;;;;;;;15.74;72.85;101818.72;5281592;28;20388;-72
2022/10/04 11:22:59;;;;;;;10.68;5.50;;;;;;;15.84;73.03;101826.97;5279616;28;20482;-72
2022/10/04 11:26:07;;;;;;;8.23;4.70;;;;;;;15.94;71.86;101823.22;5281718;28;20029;-72
2022/10/04 11:28:48;;;;;;;6.05;4.07;;;;;;;15.96;70.46;101815.34;5271318;28;20029;-72
2022/10/04 11:31:36;;;;;;;6.13;3.88;;;;;;;16.05;69.60;101812.69;5280136;28;20024;-72
2022/10/04 11:34:29;;;;;;;7.70;4.40;;;;;;;16.29;70.02;101804.22;5292920;28;20035;-71
2022/10/04 11:37:13;;;;;;;10.93;6.82;;;;;;;16.33;69.74;101807.22;5260527;28;20464;-71
2022/10/04 11:40:24;;;;;;;6.93;4.57;;;;;;;16.39;69.47;101812.44;5272817;28;20032;-71
2022/10/04 11:43:18;;;;;;;5.88;4.07;;;;;;;16.42;69.71;101808.19;5280259;28;20025;-72
2022/10/04 11:46:22;;;;;;;7.75;4.25;;;;;;;16.42;68.22;101799.78;5281958;28;20032;-71
2022/10/04 11:49:02;;;;;;;6.10;3.65;;;;;;;16.48;68.94;101804.97;5267876;28;20527;-71
2022/10/04 11:51:55;;;;;;;4.97;3.85;;;;;;;16.65;69.09;101798.00;5273437;28;20426;-72
2022/10/04 11:54:51;;;;;;;8.50;4.10;;;;;;;16.74;68.08;101796.13;5282178;28;20377;-77
2022/10/04 11:57:26;;;;;;;;;;;;;;;16.83;67.12;101788.72;5282131;28;20028;-77
2022/10/04 12:00:11;;;;;;;6.85;4.40;;;;;;;16.81;66.42;101784.56;5281008;28;20383;-77
2022/10/04 12:03:20;;;;;;;8.00;5.82;;;;;;;16.82;67.34;101791.81;5264861;28;20020;-77
2022/10/04 12:06:02;;;;;;;5.93;3.80;;;;;;;16.84;66.72;101797.94;5177050;28;20106;-76
2022/10/04 12:08:49;;;;;;;6.28;3.65;;;;;;;16.83;66.11;101794.31;5272587;28;20082;-75
2022/10/04 12:11:20;;;;;;;5.38;3.85;;;;;;;16.84;65.08;101790.34;5284518;28;20518;-76
2022/10/04 12:13:57;;;;;;;6.13;3.50;;;;;;;16.76;64.71;101795.81;5289905;28;20028;-77
2022/10/04 12:17:07;;;;;;;6.63;4.38;;;;;;;16.80;65.72;101797.75;5294624;28;20054;-78
2022/10/04 12:20:00;;;;;;;6.18;3.63;;;;;;;16.97;65.67;101785.09;5239164;28;20040;-77
2022/10/04 12:22:47;;;;;;;5.35;4.03;;;;;;;16.97;63.99;101785.09;5275285;28;20400;-75
2022/10/04 12:26:06;;;;;;;5.20;3.35;;;;;;;17.04;64.43;101779.91;5283793;28;20032;-76
2022/10/04 12:29:06;;;;;;;5.60;3.47;;;;;;;17.09;64.93;101774.19;5272256;28;20043;-71
2022/10/04 12:31:45;;;;;;;6.97;4.38;;;;;;;17.17;65.13;101776.25;5258540;28;20149;-71
2022/10/04 12:34:44;;;;;;;5.30;3.60;;;;;;;17.26;63.81;101774.41;5268253;28;20107;-71
2022/10/04 12:37:37;;;;;;;6.43;3.40;;;;;;;17.38;63.68;101768.25;5280296;28;20082;-70
2022/10/04 12:40:08;;;;;;;7.75;3.70;;;;;;;17.42;62.35;101771.28;5268660;28;20033;-70
2022/10/04 12:42:57;;;;;;;6.00;4.28;;;;;;;17.50;61.50;101754.53;5280804;28;20047;-72
2022/10/04 12:46:05;;;;;;;4.15;3.00;;;;;;;17.67;61.01;101750.25;5279998;28;20021;-71
2022/10/04 12:49:12;;;;;;;4.22;3.33;;;;;;;17.83;59.93;101759.97;5284784;28;20119;-72
2022/10/04 12:51:53;;;;;;;7.50;4.60;;;;;;;17.87;58.58;101748.94;5243395;28;20036;-71
2022/10/04 12:54:43;;;;;;;5.20;3.53;;;;;;;17.95;59.08;101743.41;5283630;28;20071;-70
2022/10/04 12:57:33;;;;;;;5.85;3.38;;;;;;;17.96;59.00;101750.69;5263974;28;20021;-71
2022/10/04 13:00:22;;;;;;;6.32;3.47;;;;;;;18.11;57.87;101743.88;5269450;28;20075;-72
2022/10/04 13:03:12;;;;;;;5.53;3.28;;;;;;;18.13;57.70;101741.56;5306455;28;20252;-72
2022/10/04 13:06:09;;;;;;;4.28;2.95;;;;;;;18.32;56.60;101737.72;5292390;28;20052;-74
2022/10/04 13:08:52;;;;;;;;;;;;;;;18.46;56.28;101732.88;5274669;28;20376;-74
2022/10/04 13:12:08;;;;;;;4.90;3.25;;;;;;;18.43;57.97;101734.34;5268109;28;20326;-73
2022/10/04 13:14:51;;;;;;;7.55;4.05;;;;;;;18.36;56.68;101731.16;5280009;28;20036;-76
2022/10/04 13:17:41;;;;;;;7.50;3.55;;;;;;;18.42;57.43;101726.22;5283863;28;20395;-75
2022/10/04 13:20:33;;;;;;;7.50;2.90;;;;;;;18.40;56.72;101728.50;5285785;28;20533;-75
2022/10/04 13:23:25;;;;;;;6.60;3.42;;;;;;;18.55;56.68;101724.47;5277715;28;20024;-74
2022/10/04 13:26:10;;;;;;;7.53;3.75;;;;;;;18.61;57.00;101724.03;5265631;28;20059;-74
2022/10/04 13:28:47;;;;;;;4.88;3.50;;;;;;;18.59;56.53;101726.31;5264441;28;20483;-75
2022/10/04 13:31:37;;;;;;;4.40;2.88;;;;;;;18.62;58.20;101722.84;5263399;28;20033;-75
2022/10/04 13:34:18;;;;;;;4.72;3.50;;;;;;;18.57;58.17;101723.00;5269110;28;20033;-74
2022/10/04 13:37:03;;;;;;;5.35;3.85;;;;;;;18.54;58.56;101722.81;5262771;28;20083;-74
2022/10/04 13:39:58;;;;;;;4.43;3.65;;;;;;;18.41;58.64;101730.19;5268364;28;20020;-75
2022/10/04 13:42:35;;;;;;;5.90;3.60;;;;;;;18.39;58.40;101724.06;5271943;28;20086;-74
2022/10/04 13:45:25;;;;;;;4.78;3.33;;;;;;;18.46;58.92;101727.25;5305080;28;20093;-74
2022/10/04 13:48:35;;;;;;;6.53;3.95;;;;;;;18.46;59.44;101732.88;5266406;28;20120;-73
2022/10/04 13:51:36;;;;;;;5.85;3.20;;;;;;;18.47;59.11;101731.69;5279894;28;20093;-72
2022/10/04 13:57:44;;;;;;;5.75;3.80;;;;;;;18.45;60.01;101711.53;5282818;28;20395;-75
2022/10/04 14:00:36;;;;;;;8.07;3.70;;;;;;;18.38;59.81;101703.59;5251730;28;20508;-74
2022/10/04 14:03:10;;;;;;;7.68;3.38;;;;;;;18.34;59.67;101691.31;5267156;28;20049;-75
2022/10/04 14:06:12;;;;;;;4.95;2.92;;;;;;;18.32;60.20;101688.00;5262731;28;20383;-74
2022/10/04 14:09:09;;;;;;;5.30;3.80;;;;;;;18.30;60.79;101683.88;5261944;28;20021;-72
2022/10/04 14:12:06;;;;;;;4.78;3.28;;;;;;;18.27;59.84;101674.09;5279861;28;20023;-77
2022/10/04 14:14:57;;;;;;;5.47;3.28;;;;;;;18.25;60.80;101668.81;5283051;28;20123;-77
2022/10/04 14:17:45;;;;;;;6.65;3.42;;;;;;;18.28;61.19;101672.13;5282928;28;20042;-77
2022/10/04 14:20:35;;;;;;;5.80;3.50;;;;;;;18.23;61.50;101667.50;5275410;28;20471;-77
2022/10/04 14:23:36;;;;;;;5.22;3.30;;;;;;;18.24;61.56;101669.13;5267030;28;20024;-78
2022/10/04 14:26:37;;;;;;;6.75;4.13;;;;;;;18.27;62.11;101662.06;5272636;28;20036;-76
2022/10/04 14:29:27;;;;;;;4.18;3.40;;;;;;;18.29;61.26;101666.19;5245463;28;20049;-77
2022/10/04 14:32:33;;;;;;;4.15;3.15;;;;;;;18.31;61.46;101643.41;5271249;28;20024;-76
2022/10/04 14:35:16;;;;;;;5.03;4.38;;;;;;;18.29;61.76;101642.91;5275399;28;20044;-75
2022/10/04 14:38:03;;;;;;;8.85;3.67;;;;;;;18.37;62.69;101634.50;5276658;28;20124;-73
2022/10/04 14:40:48;;;;;;;5.75;4.38;;;;;;;18.40;62.53;101636.66;5281222;28;20044;-74
2022/10/04 14:44:02;;;;;;;3.63;3.22;;;;;;;18.47;62.58;101627.78;5281617;28;20028;-74
2022/10/04 14:46:57;;;;;;;5.78;3.42;;;;;;;18.46;61.92;101626.16;5268060;28;20565;-74
2022/10/04 14:49:28;;;;;;;8.00;3.60;;;;;;;18.44;61.37;101634.06;5278363;28;20068;-73
2022/10/04 14:52:31;;;;;;;4.07;2.70;;;;;;;18.39;61.99;101637.84;5282251;28;20056;-75
2022/10/04 14:55:32;;;;;;;5.95;3.47;;;;;;;18.44;62.32;101640.50;5281539;28;20501;-75
2022/10/04 14:58:18;;;;;;;5.93;3.20;;;;;;;18.38;62.01;101640.94;5274545;28;20061;-74
2022/10/04 15:01:06;;;;;;;4.38;3.42;;;;;;;18.45;62.03;101647.75;5263707;28;20052;-73
2022/10/04 15:04:07;;;;;;;4.75;3.17;;;;;;;18.46;62.02;101640.19;5279928;28;20107;-74
2022/10/04 15:06:50;;;;;;;6.75;3.67;;;;;;;18.42;61.39;101637.19;5278765;28;20047;-69
2022/10/04 15:09:40;;;;;;;4.97;2.88;;;;;;;18.49;61.70;101636.72;5281331;28;20034;-70
2022/10/04 15:12:23;;;;;;;6.70;3.78;;;;;;;18.45;60.97;101641.31;5267245;28;20040;-70
2022/10/04 15:14:57;;;;;;;8.05;3.45;;;;;;;18.35;61.33;101641.59;5271230;28;20518;-74
2022/10/04 15:17:35;;;;;;;6.70;3.60;;;;;;;18.41;61.71;101645.94;5274530;28;20040;-74
2022/10/04 15:20:15;;;;;;;5.95;3.20;;;;;;;18.39;61.67;101654.69;5281764;28;20024;-75
2022/10/04 15:23:15;;;;;;;3.80;3.08;;;;;;;18.33;61.87;101649.50;5281257;28;20029;-73
2022/10/04 15:25:55;;;;;;;7.40;3.42;;;;;;;18.24;62.28;101658.72;5260195;28;20041;-72
2022/10/04 15:28:48;;;;;;;6.13;2.92;;;;;;;18.22;62.46;101654.59;5262820;28;20442;-74
2022/10/04 15:31:36;;;;;;;4.70;3.15;;;;;;;18.14;62.57;101658.19;5272175;28;20032;-74
2022/10/04 15:34:26;;;;;;;5.82;3.35;;;;;;;18.12;62.91;101652.88;5260376;28;20035;-74
2022/10/04 15:37:08;;;;;;;4.45;3.35;;;;;;;18.07;63.32;101655.81;5275668;28;20357;-74
2022/10/04 15:40:14;;;;;;;5.32;3.33;;;;;;;18.05;64.10;101655.34;5261181;28;20017;-74
2022/10/04 15:43:22;;;;;;;8.85;3.50;;;;;;;18.04;64.05;101656.47;5261244;28;20032;-73
2022/10/04 15:46:22;;;;;;;7.28;3.92;;;;;;;17.93;64.53;101661.53;5280313;28;20416;-73
2022/10/04 15:49:13;;;;;;;5.50;3.35;;;;;;;17.92;64.82;101647.78;5280186;28;20038;-73
2022/10/04 15:52:13;;;;;;;5.05;3.53;;;;;;;17.87;65.25;101642.31;5270157;28;20044;-73
2022/10/04 15:55:01;;;;;;;7.03;3.83;;;;;;;17.84;65.96;101632.56;5278299;28;20040;-73
2022/10/04 15:57:39;;;;;;;5.88;3.63;;;;;;;17.76;66.26;101641.72;5280809;28;20052;-72
2022/10/04 16:00:14;;;;;;;6.07;3.80;;;;;;;17.72;66.00;101644.34;5275007;28;20605;-73
2022/10/04 16:03:11;;;;;;;5.82;3.90;;;;;;;17.71;66.61;101648.28;5273796;28;20419;-73
2022/10/04 16:05:56;;;;;;;6.45;3.47;;;;;;;17.65;66.93;101646.75;5265193;28;20064;-77
2022/10/04 16:08:34;;;;;;;10.93;4.50;;;;;;;17.64;67.06;101645.13;5260633;28;20025;-76
2022/10/04 16:11:18;;;;;;;5.82;4.18;;;;;;;17.58;67.25;101635.16;5270417;28;20363;-75
2022/10/04 16:13:49;;;;;;;6.30;4.10;;;;;;;17.51;67.27;101629.16;5281088;28;20021;-75
2022/10/04 16:16:31;;;;;;;4.57;3.45;;;;;;;17.51;67.85;101629.16;5280758;28;20032;-76
2022/10/04 16:19:31;;;;;;;6.72;4.28;;;;;;;17.51;67.89;101643.19;5261368;28;20033;-76
2022/10/04 16:22:13;;;;;;;7.63;3.88;;;;;;;17.43;67.99;101629.91;5263061;28;20075;-76
2022/10/04 16:24:50;;;;;;;5.60;3.70;;;;;;;17.42;68.56;101636.69;5271689;28;20365;-76
2022/10/04 16:27:48;;;;;;;7.40;4.00;;;;;;;17.39;68.54;101650.19;5264878;28;20033;-76
2022/10/04 16:30:47;;;;;;;7.57;4.22;;;;;;;17.39;69.33;101647.38;5283132;28;20058;-76
2022/10/04 16:33:33;;;;;;;7.35;3.90;;;;;;;17.35;68.98;101649.16;5283881;28;20086;-76
2022/10/04 16:36:08;;;;;;;8.95;5.00;;;;;;;17.33;69.08;101651.47;5286312;28;20105;-76
2022/10/04 16:41:44;;;;;;;6.78;4.20;;;;;;;17.23;69.40;101660.09;5269010;28;20551;-75
2022/10/04 16:44:31;;;;;;;6.53;3.88;;;;;;;17.23;69.69;101667.66;5284787;28;20024;-74
2022/10/04 16:47:21;;;;;;;7.78;3.90;;;;;;;17.17;69.95;101664.97;5282737;28;20028;-74
2022/10/04 16:49:56;;;;;;;8.50;4.55;;;;;;;17.05;70.00;101670.31;5285752;28;20097;-74
2022/10/04 16:53:30;;;;;;;7.93;4.60;;;;;;;17.09;70.55;101690.13;5277313;28;20420;-75
2022/10/04 16:56:15;;;;;;;10.98;5.05;;;;;;;16.98;70.63;101678.31;5180983;28;20081;-74
2022/10/04 16:59:02;;;;;;;8.75;4.28;;;;;;;16.97;70.95;101675.81;5278226;28;20463;-75
2022/10/04 17:01:59;;;;;;;5.90;3.90;;;;;;;16.98;71.24;101688.69;5284029;28;20477;-72
2022/10/04 17:04:38;;;;;;;12.20;5.28;;;;;;;16.87;71.70;101680.50;5282539;28;20115;-74
2022/10/04 17:07:10;;;;;;;9.32;5.30;;;;;;;16.85;71.95;101679.16;5283519;28;20033;-74
2022/10/04 17:09:49;;;;;;;8.57;4.68;;;;;;;16.82;72.28;101679.75;5281955;28;20103;-75
2022/10/04 17:12:44;;;;;;;8.85;5.05;;;;;;;16.79;72.68;101686.00;5282694;28;20044;-78
2022/10/04 17:16:17;;;;;;;7.50;4.88;;;;;;;16.77;72.64;101683.50;5283873;28;20400;-70
2022/10/04 17:19:09;;;;;;;8.02;4.78;;;;;;;16.66;72.99;101687.63;5281258;28;20151;-70
2022/10/04 17:22:19;;;;;;;6.25;4.35;;;;;;;16.65;73.25;101689.59;5278330;28;20036;-71
2022/10/04 17:25:18;;;;;;;9.68;4.82;;;;;;;16.62;73.04;101686.59;5269718;28;20033;-70
2022/10/04 17:27:55;;;;;;;8.80;5.28;;;;;;;16.53;73.70;101695.69;5282492;28;20020;-70
2022/10/04 17:30:41;;;;;;;7.32;4.90;;;;;;;16.51;73.67;101691.53;5283935;28;20535;-70
